createdAt,value
2022-11-23T00:01:27.022Z,73.50
2022-11-23T00:03:57.562Z,70.00
2022-11-23T00:06:26.033Z,71.90
2022-11-23T00:08:54.689Z,68.70
2022-11-23T00:11:24.530Z,69.40
2022-11-23T00:13:53.277Z,74.50
2022-11-23T00:16:23.666Z,67.40
2022-11-23T00:19:02.269Z,67.30
2022-11-23T00:21:32.032Z,66.50
2022-11-23T00:24:00.340Z,66.40
2022-11-23T00:26:28.263Z,71.70
2022-11-23T00:28:56.035Z,72.50
2022-11-23T00:31:27.443Z,64.10
2022-11-23T00:33:56.980Z,67.70
2022-11-23T00:36:27.676Z,62.10
2022-11-23T00:38:55.614Z,68.90
2022-11-23T00:41:26.315Z,63.00
2022-11-23T00:43:54.514Z,69.40
2022-11-23T00:46:24.907Z,69.20
2022-11-23T00:48:54.856Z,72.00
2022-11-23T00:51:29.484Z,65.40
2022-11-23T00:53:58.446Z,67.20
2022-11-23T00:56:28.825Z,68.90
2022-11-23T00:58:58.501Z,72.70
2022-11-23T01:01:31.023Z,63.40
2022-11-23T01:04:03.671Z,69.40
2022-11-23T01:06:35.721Z,70.50
2022-11-23T01:09:14.695Z,69.50
2022-11-23T01:11:42.956Z,61.00
2022-11-23T01:14:11.321Z,73.50
2022-11-23T01:16:42.769Z,68.00
2022-11-23T01:19:15.171Z,69.20
2022-11-23T01:21:45.665Z,66.10
2022-11-23T01:24:16.726Z,58.90
2022-11-23T01:26:45.599Z,70.70
2022-11-23T01:29:13.399Z,67.40
2022-11-23T01:31:46.274Z,75.50
2022-11-23T01:34:16.047Z,69.00
2022-11-23T01:36:44.648Z,69.40
2022-11-23T01:39:13.382Z,67.50
2022-11-23T01:41:43.016Z,66.70
2022-11-23T01:44:27.386Z,64.30
2022-11-23T01:46:58.885Z,72.90
2022-11-23T01:49:31.828Z,67.10
2022-11-23T01:52:05.037Z,61.90
2022-11-23T01:54:43.374Z,71.10
2022-11-23T01:57:19.549Z,66.90
2022-11-23T01:59:49.015Z,70.50
2022-11-23T02:04:47.950Z,73.30
2022-11-23T02:07:17.496Z,70.10
2022-11-23T02:09:46.700Z,67.40
2022-11-23T02:12:15.130Z,68.90
2022-11-23T02:14:45.779Z,71.10
2022-11-23T02:17:14.166Z,70.50
2022-11-23T02:19:55.998Z,61.80
2022-11-23T02:22:42.237Z,69.10
2022-11-23T02:25:29.003Z,67.00
2022-11-23T02:27:57.869Z,65.40
2022-11-23T02:30:30.571Z,73.30
2022-11-23T02:32:58.416Z,71.70
2022-11-23T02:35:26.191Z,68.60
2022-11-23T02:37:53.973Z,69.30
2022-11-23T02:40:34.335Z,69.70
2022-11-23T02:45:55.394Z,68.70
2022-11-23T02:48:26.940Z,69.70
2022-11-23T02:50:55.674Z,62.10
2022-11-23T02:53:25.208Z,67.00
2022-11-23T02:55:54.246Z,66.40
2022-11-23T02:58:22.289Z,60.60
2022-11-23T03:00:50.323Z,68.40
2022-11-23T03:03:20.697Z,60.50
2022-11-23T03:05:48.524Z,64.80
2022-11-23T03:08:16.679Z,66.80
2022-11-23T03:10:44.608Z,65.00
2022-11-23T03:13:12.640Z,65.50
2022-11-23T03:15:40.917Z,59.50
2022-11-23T03:18:10.209Z,60.40
2022-11-23T03:20:40.678Z,64.30
2022-11-23T03:23:08.583Z,64.60
2022-11-23T03:25:36.415Z,60.80
2022-11-23T03:28:05.419Z,61.60
2022-11-23T03:30:33.904Z,60.90
2022-11-23T03:33:02.491Z,61.80
2022-11-23T03:35:30.480Z,66.00
2022-11-23T03:38:21.602Z,65.00
2022-11-23T03:40:49.539Z,60.10
2022-11-23T03:43:25.724Z,57.70
2022-11-23T03:45:53.535Z,61.50
2022-11-23T03:48:21.615Z,64.70
2022-11-23T03:50:49.772Z,55.80
2022-11-23T03:53:17.575Z,59.40
2022-11-23T03:55:47.369Z,62.20
2022-11-23T03:58:15.393Z,57.30
2022-11-23T04:00:43.468Z,56.10
2022-11-23T04:03:12.245Z,59.70
2022-11-23T04:06:09.810Z,58.50
2022-11-23T04:09:01.956Z,53.80
2022-11-23T04:11:44.785Z,58.00
2022-11-23T04:14:12.700Z,52.60
2022-11-23T04:16:40.483Z,60.10
2022-11-23T04:19:08.510Z,63.90
2022-11-23T04:21:36.676Z,60.80
2022-11-23T04:24:04.895Z,60.70
2022-11-23T04:26:33.870Z,65.00
2022-11-23T04:29:02.817Z,66.50
2022-11-23T04:31:31.127Z,60.40
2022-11-23T04:34:08.468Z,59.30
2022-11-23T04:36:36.562Z,61.10
2022-11-23T04:39:05.262Z,66.40
2022-11-23T04:41:46.233Z,60.80
2022-11-23T04:44:14.062Z,61.20
2022-11-23T04:46:42.060Z,58.70
2022-11-23T04:49:12.639Z,61.80
2022-11-23T04:51:40.410Z,62.20
2022-11-23T04:54:08.906Z,63.90
2022-11-23T04:56:43.040Z,64.20
2022-11-23T04:59:11.153Z,62.40
2022-11-23T05:01:39.016Z,64.40
2022-11-23T05:04:25.411Z,61.40
2022-11-23T05:06:54.173Z,56.70
2022-11-23T05:09:22.127Z,62.40
2022-11-23T05:11:59.268Z,57.40
2022-11-23T05:14:27.908Z,58.30
2022-11-23T05:16:55.912Z,57.60
2022-11-23T05:19:24.134Z,61.00
2022-11-23T05:21:52.724Z,57.30
2022-11-23T05:24:20.622Z,62.00
2022-11-23T05:26:59.192Z,55.00
2022-11-23T05:29:26.983Z,55.30
2022-11-23T05:31:54.956Z,56.70
2022-11-23T05:34:23.354Z,52.90
2022-11-23T05:36:51.114Z,51.10
2022-11-23T05:39:19.722Z,55.80
2022-11-23T05:41:50.495Z,59.40
2022-11-23T05:44:32.388Z,54.40
2022-11-23T05:47:01.178Z,57.50
2022-11-23T05:49:31.625Z,55.50
2022-11-23T05:51:59.861Z,58.60
2022-11-23T05:54:28.377Z,53.60
2022-11-23T05:57:02.678Z,61.30
2022-11-23T05:59:44.400Z,61.70
2022-11-23T06:02:21.554Z,56.00
2022-11-23T06:04:52.067Z,60.20
2022-11-23T06:07:24.702Z,59.30
2022-11-23T06:10:13.914Z,64.70
2022-11-23T06:12:46.035Z,61.30
2022-11-23T06:15:15.827Z,64.20
2022-11-23T06:17:43.832Z,62.00
2022-11-23T06:20:15.651Z,56.20
2022-11-23T06:22:53.011Z,56.10
2022-11-23T06:25:21.738Z,55.30
2022-11-23T06:28:01.696Z,56.70
2022-11-23T06:30:35.654Z,60.80
2022-11-23T06:33:06.437Z,66.90
2022-11-23T06:35:39.674Z,57.50
2022-11-23T06:38:07.752Z,81.00
2022-11-23T06:40:35.650Z,161.10
2022-11-23T06:43:03.888Z,53.30
2022-11-23T06:45:38.285Z,53.20
2022-11-23T06:48:08.325Z,58.30
2022-11-23T06:50:38.770Z,56.20
2022-11-23T06:53:06.649Z,52.40
2022-11-23T06:55:43.620Z,51.00
2022-11-23T06:58:12.327Z,50.30
2022-11-23T07:00:40.414Z,56.80
2022-11-23T07:03:25.269Z,52.00
2022-11-23T07:05:59.296Z,55.50
2022-11-23T07:08:29.402Z,52.70
2022-11-23T07:11:02.640Z,55.50
2022-11-23T07:13:30.700Z,51.40
2022-11-23T07:15:59.688Z,55.50
2022-11-23T07:18:29.572Z,50.90
2022-11-23T07:21:00.255Z,49.90
2022-11-23T07:23:28.318Z,50.90
2022-11-23T07:25:56.494Z,48.10
2022-11-23T07:28:24.481Z,45.30
2022-11-23T07:30:52.765Z,46.70
2022-11-23T07:33:20.923Z,51.10
2022-11-23T07:35:49.612Z,47.80
2022-11-23T07:38:17.515Z,49.50
2022-11-23T07:40:49.604Z,52.80
2022-11-23T07:43:26.230Z,50.40
2022-11-23T07:45:58.108Z,47.50
2022-11-23T07:48:25.892Z,44.80
2022-11-23T07:50:55.392Z,45.30
2022-11-23T07:53:23.881Z,42.20
2022-11-23T07:55:57.057Z,45.60
2022-11-23T07:58:25.561Z,47.80
2022-11-23T08:00:53.446Z,47.00
2022-11-23T08:03:30.265Z,47.60
2022-11-23T08:05:58.814Z,48.70
2022-11-23T08:08:26.944Z,48.80
2022-11-23T08:10:54.985Z,53.00
2022-11-23T08:13:23.553Z,49.90
2022-11-23T08:15:55.279Z,48.90
2022-11-23T08:18:24.473Z,46.10
2022-11-23T08:20:55.104Z,44.90
2022-11-23T08:25:53.737Z,47.40
2022-11-23T08:28:23.205Z,47.70
2022-11-23T08:30:51.046Z,50.40
2022-11-23T08:33:19.033Z,49.90
2022-11-23T08:35:46.821Z,49.20
2022-11-23T08:38:15.669Z,52.30
2022-11-23T08:40:43.726Z,48.90
2022-11-23T08:43:11.708Z,50.70
2022-11-23T08:45:39.725Z,52.70
2022-11-23T08:48:07.756Z,45.40
2022-11-23T08:50:37.298Z,48.20
2022-11-23T08:55:33.797Z,44.70
2022-11-23T08:58:02.036Z,50.60
2022-11-23T09:00:30.340Z,52.00
2022-11-23T09:03:01.849Z,53.00
2022-11-23T09:05:33.406Z,53.40
2022-11-23T09:08:02.167Z,51.70
2022-11-23T09:10:30.595Z,54.60
2022-11-23T09:13:08.688Z,50.50
2022-11-23T09:15:36.544Z,53.40
2022-11-23T09:18:04.738Z,53.30
2022-11-23T09:20:32.853Z,51.60
2022-11-23T09:23:00.849Z,53.40
2022-11-23T09:25:28.610Z,50.70
2022-11-23T09:28:00.425Z,51.30
2022-11-23T09:30:28.625Z,47.80
2022-11-23T09:32:58.116Z,51.50
2022-11-23T09:35:40.752Z,56.20
2022-11-23T09:38:12.045Z,58.90
2022-11-23T09:40:41.218Z,54.60
2022-11-23T09:43:27.500Z,59.40
2022-11-23T09:46:00.535Z,55.50
2022-11-23T09:48:48.915Z,54.90
2022-11-23T09:51:19.052Z,50.10
2022-11-23T09:54:05.709Z,52.40
2022-11-23T09:56:36.989Z,55.10
2022-11-23T09:59:31.054Z,53.50
2022-11-23T10:02:00.698Z,52.80
2022-11-23T10:04:35.592Z,57.10
2022-11-23T10:07:25.623Z,58.80
2022-11-23T10:10:21.788Z,56.40
2022-11-23T10:13:10.807Z,55.90
2022-11-23T10:16:10.704Z,60.70
2022-11-23T10:18:56.947Z,59.80
2022-11-23T10:21:46.616Z,57.30
2022-11-23T10:24:21.154Z,64.20
2022-11-23T10:26:50.170Z,55.40
2022-11-23T10:29:32.856Z,57.50
2022-11-23T10:32:01.193Z,56.50
2022-11-23T10:34:46.694Z,51.40
2022-11-23T10:37:18.276Z,53.80
2022-11-23T10:39:46.171Z,52.40
2022-11-23T10:42:30.722Z,54.30
2022-11-23T10:45:00.615Z,54.30
2022-11-23T10:47:59.000Z,51.40
2022-11-23T10:50:38.727Z,48.60
2022-11-23T10:53:06.663Z,55.00
2022-11-23T10:55:58.242Z,52.00
2022-11-23T10:58:33.437Z,57.80
2022-11-23T11:01:07.211Z,52.00
2022-11-23T11:03:35.866Z,54.60
2022-11-23T11:06:09.847Z,55.40
2022-11-23T11:08:54.597Z,49.50
2022-11-23T11:11:31.913Z,55.30
2022-11-23T11:14:25.041Z,54.90
2022-11-23T11:16:55.575Z,53.30
2022-11-23T11:19:31.429Z,50.10
2022-11-23T11:22:04.721Z,48.60
2022-11-23T11:24:44.609Z,50.10
2022-11-23T11:27:21.578Z,47.60
2022-11-23T11:30:26.871Z,49.00
2022-11-23T11:33:07.026Z,46.10
2022-11-23T11:35:39.310Z,48.70
2022-11-23T11:38:29.744Z,49.30
2022-11-23T11:41:01.038Z,46.20
2022-11-23T11:43:39.447Z,46.00
2022-11-23T11:46:31.101Z,45.10
2022-11-23T11:49:22.984Z,42.60
2022-11-23T11:51:56.967Z,41.80
2022-11-23T11:54:42.692Z,47.90
2022-11-23T11:57:20.183Z,46.50
2022-11-23T11:59:53.104Z,43.20
2022-11-23T12:02:34.003Z,45.10
2022-11-23T12:05:20.292Z,44.00
2022-11-23T12:08:11.771Z,44.50
2022-11-23T12:10:59.313Z,55.40
2022-11-23T12:13:36.209Z,49.10
2022-11-23T12:16:16.443Z,44.70
2022-11-23T12:19:10.619Z,48.90
2022-11-23T12:22:00.520Z,50.50
2022-11-23T12:24:50.138Z,52.20
2022-11-23T12:27:56.865Z,54.70
2022-11-23T12:30:49.330Z,52.30
2022-11-23T12:33:46.090Z,48.80
2022-11-23T12:36:51.322Z,47.60
2022-11-23T12:39:25.538Z,46.50
2022-11-23T12:42:08.982Z,50.40
2022-11-23T12:44:43.697Z,49.20
2022-11-23T12:47:19.507Z,46.90
2022-11-23T12:49:52.499Z,47.10
2022-11-23T12:52:32.067Z,50.90
2022-11-23T12:55:21.816Z,48.50
2022-11-23T12:58:21.251Z,46.00
2022-11-23T13:00:56.086Z,52.60
2022-11-23T13:03:50.420Z,51.30
2022-11-23T13:06:30.202Z,50.80
2022-11-23T13:09:20.130Z,50.10
2022-11-23T13:11:57.180Z,52.90
2022-11-23T13:15:00.836Z,50.30
2022-11-23T13:17:40.933Z,52.70
2022-11-23T13:20:39.627Z,54.60
2022-11-23T13:23:10.307Z,52.40
2022-11-23T13:25:38.366Z,46.50
2022-11-23T13:28:37.429Z,44.50
2022-11-23T13:31:31.693Z,48.80
2022-11-23T13:34:24.270Z,48.70
2022-11-23T13:37:17.090Z,53.00
2022-11-23T13:39:48.130Z,52.90
2022-11-23T13:42:20.254Z,51.50
2022-11-23T13:44:50.136Z,50.00
2022-11-23T13:47:21.335Z,52.80
2022-11-23T13:50:18.970Z,55.10
2022-11-23T13:52:51.314Z,53.00
2022-11-23T13:55:22.552Z,48.70
2022-11-23T13:58:17.591Z,52.60
2022-11-23T14:00:51.254Z,51.40
2022-11-23T14:03:56.158Z,53.80
2022-11-23T14:06:48.753Z,57.50
2022-11-23T14:09:33.801Z,50.50
2022-11-23T14:12:36.959Z,48.70
2022-11-23T14:15:26.713Z,51.10
2022-11-23T14:18:04.212Z,49.50
2022-11-23T14:20:40.955Z,57.50
2022-11-23T14:23:27.495Z,63.60
2022-11-23T14:26:29.663Z,57.70
2022-11-23T14:29:19.365Z,52.40
2022-11-23T14:31:57.406Z,55.90
2022-11-23T14:34:46.667Z,53.60
2022-11-23T14:37:35.946Z,49.80
2022-11-23T14:40:37.809Z,49.00
2022-11-23T14:43:19.293Z,50.40
2022-11-23T14:45:53.219Z,54.30
2022-11-23T14:48:30.405Z,55.70
2022-11-23T14:51:14.918Z,53.10
2022-11-23T14:53:49.188Z,55.90
2022-11-23T14:56:36.945Z,59.30
2022-11-23T14:59:15.670Z,56.00
2022-11-23T15:01:59.846Z,55.90
2022-11-23T15:04:34.823Z,51.70
2022-11-23T15:07:17.723Z,52.10
2022-11-23T15:09:54.306Z,53.40
2022-11-23T15:12:40.343Z,54.70
2022-11-23T15:15:22.453Z,54.30
2022-11-23T15:17:57.609Z,59.80
2022-11-23T15:20:34.560Z,56.90
2022-11-23T15:23:03.373Z,52.90
2022-11-23T15:25:31.747Z,52.50
2022-11-23T15:27:59.866Z,53.20
2022-11-23T15:30:30.960Z,58.00
2022-11-23T15:33:23.693Z,61.10
2022-11-23T15:35:56.120Z,61.10
2022-11-23T15:38:24.333Z,59.20
2022-11-23T15:40:52.603Z,63.40
2022-11-23T15:43:20.569Z,60.50
2022-11-23T15:45:48.511Z,61.50
2022-11-23T15:48:19.735Z,58.10
2022-11-23T15:51:02.449Z,64.00
2022-11-23T15:53:45.203Z,60.10
2022-11-23T15:56:22.756Z,56.20
2022-11-23T15:58:52.395Z,55.30
2022-11-23T16:01:21.209Z,58.80
2022-11-23T16:03:52.667Z,58.60
2022-11-23T16:06:24.760Z,60.10
2022-11-23T16:08:52.534Z,58.60
2022-11-23T16:11:33.896Z,59.10
2022-11-23T16:14:20.837Z,67.20
2022-11-23T16:17:19.632Z,62.00
2022-11-23T16:19:49.411Z,64.20
2022-11-23T16:22:25.456Z,59.50
2022-11-23T16:25:03.395Z,62.10
2022-11-23T16:27:34.078Z,65.10
2022-11-23T16:30:04.816Z,71.80
2022-11-23T16:32:32.945Z,63.70
2022-11-23T16:35:27.182Z,65.90
2022-11-23T16:37:55.124Z,71.20
2022-11-23T16:40:23.173Z,69.70
2022-11-23T16:42:52.029Z,70.40
2022-11-23T16:45:20.019Z,73.50
2022-11-23T16:47:52.111Z,73.40
2022-11-23T16:50:21.359Z,65.20
2022-11-23T16:52:49.425Z,67.40
2022-11-23T16:55:17.205Z,67.90
2022-11-23T16:57:45.400Z,62.40
2022-11-23T17:00:19.553Z,72.20
2022-11-23T17:02:47.626Z,72.30
2022-11-23T17:05:25.311Z,73.70
2022-11-23T17:07:53.210Z,82.30
2022-11-23T17:10:21.086Z,82.10
2022-11-23T17:12:54.846Z,85.00
2022-11-23T17:15:23.910Z,84.40
2022-11-23T17:17:52.258Z,81.70
2022-11-23T17:20:20.267Z,85.00
2022-11-23T17:22:51.556Z,75.80
2022-11-23T17:25:19.448Z,82.30
2022-11-23T17:27:47.533Z,86.20
2022-11-23T17:30:18.392Z,89.00
2022-11-23T17:32:49.818Z,83.30
2022-11-23T17:35:17.766Z,87.00
2022-11-23T17:37:46.475Z,89.40
2022-11-23T17:40:19.956Z,80.00
2022-11-23T17:42:47.974Z,79.60
2022-11-23T17:45:15.925Z,70.80
2022-11-23T17:47:45.247Z,68.30
2022-11-23T17:50:17.714Z,68.10
2022-11-23T17:52:47.019Z,67.20
2022-11-23T17:55:16.012Z,75.20
2022-11-23T17:57:43.856Z,73.60
2022-11-23T18:00:17.363Z,77.60
2022-11-23T18:02:45.523Z,77.00
2022-11-23T18:05:18.021Z,71.70
2022-11-23T18:07:50.743Z,74.60
2022-11-23T18:10:19.084Z,68.80
2022-11-23T18:12:47.649Z,71.10
2022-11-23T18:15:15.673Z,66.70
2022-11-23T18:17:43.563Z,66.90
2022-11-23T18:20:11.673Z,77.00
2022-11-23T18:22:39.469Z,69.40
2022-11-23T18:25:08.650Z,74.80
2022-11-23T18:27:36.451Z,71.50
2022-11-23T18:30:04.639Z,70.90
2022-11-23T18:32:32.759Z,68.20
2022-11-23T18:35:00.665Z,67.40
2022-11-23T18:37:28.621Z,66.60
2022-11-23T18:39:56.588Z,63.40
2022-11-23T18:42:24.307Z,65.40
2022-11-23T18:44:52.213Z,71.80
2022-11-23T18:47:19.927Z,73.10
2022-11-23T18:49:47.721Z,68.90
2022-11-23T18:52:17.201Z,67.70
2022-11-23T18:57:16.743Z,64.40
2022-11-23T19:00:00.276Z,64.10
2022-11-23T19:02:28.583Z,64.80
2022-11-23T19:04:57.130Z,62.90
2022-11-23T19:07:27.136Z,65.90
2022-11-23T19:09:55.381Z,60.60
2022-11-23T19:12:23.489Z,55.60
2022-11-23T19:14:51.354Z,58.20
2022-11-23T19:17:19.341Z,62.00
2022-11-23T19:19:47.359Z,61.10
2022-11-23T19:22:16.664Z,60.40
2022-11-23T19:24:44.532Z,55.00
2022-11-23T19:27:12.819Z,57.10
2022-11-23T19:29:40.654Z,57.20
2022-11-23T19:32:08.596Z,57.60
2022-11-23T19:34:36.545Z,56.40
2022-11-23T19:37:04.489Z,58.00
2022-11-23T19:39:32.503Z,57.00
2022-11-23T19:42:00.397Z,57.00
2022-11-23T19:44:28.254Z,57.10
2022-11-23T19:46:56.082Z,59.80
2022-11-23T19:49:23.896Z,55.40
2022-11-23T19:51:53.567Z,56.00
2022-11-23T19:54:21.253Z,55.20
2022-11-23T19:56:52.404Z,58.20
2022-11-23T19:59:20.190Z,55.60
2022-11-23T20:01:48.039Z,58.60
2022-11-23T20:04:15.954Z,56.80
2022-11-23T20:06:43.703Z,53.70
2022-11-23T20:09:16.968Z,60.40
2022-11-23T20:11:50.409Z,59.20
2022-11-23T20:14:19.614Z,60.90
2022-11-23T20:16:47.978Z,56.80
2022-11-23T20:19:15.812Z,58.00
2022-11-23T20:21:43.912Z,56.90
2022-11-23T20:24:13.345Z,58.00
2022-11-23T20:29:10.399Z,53.60
2022-11-23T20:31:38.532Z,59.60
2022-11-23T20:34:08.166Z,64.40
2022-11-23T20:36:38.685Z,66.10
2022-11-23T20:39:09.865Z,62.10
2022-11-23T20:41:38.531Z,57.70
2022-11-23T20:44:15.450Z,61.20
2022-11-23T20:49:32.222Z,57.80
2022-11-23T20:52:00.242Z,58.80
2022-11-23T20:54:28.477Z,57.40
2022-11-23T20:57:00.478Z,55.90
2022-11-23T20:59:29.942Z,57.70
2022-11-23T21:01:57.757Z,57.10
2022-11-23T21:04:26.245Z,52.00
2022-11-23T21:06:54.637Z,54.00
2022-11-23T21:09:22.424Z,54.80
2022-11-23T21:12:08.527Z,53.30
2022-11-23T21:14:37.045Z,60.90
2022-11-23T21:17:05.213Z,61.10
2022-11-23T21:19:36.006Z,61.40
2022-11-23T21:22:06.564Z,56.50
2022-11-23T21:24:35.554Z,59.60
2022-11-23T21:27:04.930Z,48.50
2022-11-23T21:29:32.754Z,52.90
2022-11-23T21:32:01.548Z,58.50
2022-11-23T21:34:30.444Z,55.20
2022-11-23T21:36:58.589Z,57.70
2022-11-23T21:39:26.676Z,62.40
2022-11-23T21:41:54.752Z,58.00
2022-11-23T21:44:22.916Z,61.30
2022-11-23T21:46:51.056Z,60.50
2022-11-23T21:49:19.278Z,60.00
2022-11-23T21:51:47.876Z,56.50
2022-11-23T21:54:15.989Z,57.60
2022-11-23T21:56:46.925Z,50.10
2022-11-23T21:59:14.688Z,55.70
2022-11-23T22:05:58.940Z,53.60
2022-11-23T22:08:29.541Z,59.00
2022-11-23T22:10:58.303Z,54.50
2022-11-23T22:13:27.133Z,53.70
2022-11-23T22:15:55.456Z,52.00
2022-11-23T22:18:23.797Z,50.60
2022-11-23T22:20:52.376Z,52.60
2022-11-23T22:23:20.567Z,46.80
2022-11-23T22:25:48.821Z,52.50
2022-11-23T22:28:17.083Z,52.90
2022-11-23T22:30:53.489Z,53.50
2022-11-23T22:33:21.813Z,51.80
2022-11-23T22:35:51.490Z,50.10
2022-11-23T22:38:19.865Z,49.10
2022-11-23T22:40:49.396Z,48.60
2022-11-23T22:45:46.008Z,51.70
2022-11-23T22:48:14.353Z,50.30
2022-11-23T22:50:44.151Z,50.00
2022-11-23T22:53:12.507Z,54.30
2022-11-23T22:55:40.813Z,48.90
2022-11-23T22:58:09.661Z,48.40
2022-11-23T23:00:37.917Z,51.80
2022-11-23T23:03:06.433Z,50.50
2022-11-23T23:05:35.560Z,48.50
2022-11-23T23:08:03.993Z,51.60
2022-11-23T23:10:32.325Z,48.40
2022-11-23T23:13:00.543Z,46.70
2022-11-23T23:15:28.901Z,48.70
2022-11-23T23:17:57.173Z,46.00
2022-11-23T23:20:25.367Z,45.60
2022-11-23T23:22:53.734Z,49.20
2022-11-23T23:25:22.005Z,46.60
2022-11-23T23:27:50.212Z,45.30
2022-11-23T23:30:19.070Z,49.50
2022-11-23T23:32:48.173Z,42.50
2022-11-23T23:35:16.495Z,47.10
2022-11-23T23:37:44.671Z,48.60
2022-11-23T23:40:12.955Z,46.90
2022-11-23T23:42:41.535Z,46.60
2022-11-23T23:45:10.500Z,40.70
2022-11-23T23:47:39.097Z,48.80
2022-11-23T23:50:08.193Z,46.70
2022-11-23T23:52:39.396Z,44.20
2022-11-23T23:55:08.065Z,43.50
2022-11-23T23:57:36.727Z,46.80
